createdAt,value
2022-08-03T00:01:50.333Z,99806.66
2022-08-03T00:04:18.810Z,99801.34
2022-08-03T00:06:47.214Z,99797.22
2022-08-03T00:09:16.021Z,99793.88
2022-08-03T00:11:44.400Z,99799.78
2022-08-03T00:14:12.747Z,99796.56
2022-08-03T00:16:41.374Z,99795.72
2022-08-03T00:19:11.292Z,99789.13
2022-08-03T00:21:39.893Z,99794.53
2022-08-03T00:24:08.419Z,99793.91
2022-08-03T00:26:36.661Z,99795.66
2022-08-03T00:29:05.257Z,99793.88
2022-08-03T00:31:45.027Z,99800.47
2022-08-03T00:34:36.687Z,99802.19
2022-08-03T00:37:12.142Z,99795.56
2022-08-03T00:39:43.722Z,99797.47
2022-08-03T00:42:12.062Z,99799.16
2022-08-03T00:44:41.834Z,99791.25
2022-08-03T00:47:11.248Z,99795.56
2022-08-03T00:49:42.162Z,99791.53
2022-08-03T00:52:11.084Z,99796.16
2022-08-03T00:54:40.324Z,99788.56
2022-08-03T00:57:09.058Z,99789.69
2022-08-03T00:59:38.455Z,99782.09
2022-08-03T01:02:07.259Z,99786.59
2022-08-03T01:04:35.531Z,99781.72
2022-08-03T01:07:12.169Z,99787.00
2022-08-03T01:09:46.271Z,99783.63
2022-08-03T01:12:20.590Z,99788.00
2022-08-03T01:14:53.113Z,99787.22
2022-08-03T01:17:24.737Z,99788.91
2022-08-03T01:19:55.660Z,99791.22
2022-08-03T01:22:39.001Z,99790.31
2022-08-03T01:25:15.380Z,99792.00
2022-08-03T01:27:53.121Z,99786.75
2022-08-03T01:30:25.543Z,99792.94
2022-08-03T01:33:01.671Z,99797.34
2022-08-03T01:35:35.426Z,99793.88
2022-08-03T01:38:11.561Z,99798.09
2022-08-03T01:40:41.972Z,99797.25
2022-08-03T01:43:12.136Z,99804.22
2022-08-03T01:45:44.962Z,99806.03
2022-08-03T01:48:14.902Z,99800.19
2022-08-03T01:50:44.064Z,99803.72
2022-08-03T01:53:14.744Z,99801.28
2022-08-03T01:55:44.326Z,99796.09
2022-08-03T01:58:15.165Z,99800.41
2022-08-03T02:00:47.381Z,99795.34
2022-08-03T02:03:16.943Z,99793.59
2022-08-03T02:05:46.664Z,99790.16
2022-08-03T02:08:18.073Z,99788.59
2022-08-03T02:10:47.794Z,99790.41
2022-08-03T02:13:16.644Z,99791.34
2022-08-03T02:15:47.534Z,99786.25
2022-08-03T02:18:16.423Z,99787.13
2022-08-03T02:20:45.332Z,99796.81
2022-08-03T02:23:14.184Z,99790.03
2022-08-03T02:25:45.045Z,99786.09
2022-08-03T02:28:18.025Z,99787.16
2022-08-03T02:30:51.807Z,99784.69
2022-08-03T02:33:26.894Z,99787.44
2022-08-03T02:35:55.603Z,99780.59
2022-08-03T02:38:27.635Z,99783.28
2022-08-03T02:40:57.034Z,99779.94
2022-08-03T02:43:26.684Z,99780.69
2022-08-03T02:45:56.494Z,99787.50
2022-08-03T02:48:26.970Z,99784.00
2022-08-03T02:50:56.123Z,99781.56
2022-08-03T02:53:26.263Z,99784.16
2022-08-03T02:55:55.174Z,99782.47
2022-08-03T02:58:24.873Z,99795.50
2022-08-03T03:00:53.803Z,99792.91
2022-08-03T03:03:23.973Z,99792.97
2022-08-03T03:05:57.705Z,99794.78
2022-08-03T03:08:29.401Z,99799.44
2022-08-03T03:10:58.414Z,99806.41
2022-08-03T03:13:28.524Z,99807.34
2022-08-03T03:15:58.293Z,99806.50
2022-08-03T03:18:29.102Z,99807.63
2022-08-03T03:20:58.134Z,99806.97
2022-08-03T03:23:26.883Z,99811.28
2022-08-03T03:25:56.540Z,99816.53
2022-08-03T03:28:25.323Z,99804.91
2022-08-03T03:30:53.814Z,99801.88
2022-08-03T03:33:22.663Z,99808.19
2022-08-03T03:35:53.334Z,99812.88
2022-08-03T03:38:22.062Z,99806.06
2022-08-03T03:40:50.837Z,99806.44
2022-08-03T03:43:19.925Z,99808.34
2022-08-03T03:45:49.043Z,99803.19
2022-08-03T03:48:17.548Z,99807.31
2022-08-03T03:50:45.923Z,99817.25
2022-08-03T03:53:16.156Z,99816.94
2022-08-03T03:55:59.297Z,99822.00
2022-08-03T03:58:32.064Z,99832.84
2022-08-03T04:01:00.996Z,99825.63
2022-08-03T04:03:29.515Z,99826.66
2022-08-03T04:06:08.573Z,99829.91
2022-08-03T04:08:47.081Z,99831.59
2022-08-03T04:11:21.362Z,99837.56
2022-08-03T04:14:01.761Z,99832.31
2022-08-03T04:16:32.940Z,99839.09
2022-08-03T04:19:03.713Z,99835.25
2022-08-03T04:21:34.039Z,99835.75
2022-08-03T04:24:05.642Z,99837.25
2022-08-03T04:26:36.706Z,99843.81
2022-08-03T04:29:06.769Z,99842.66
2022-08-03T04:31:36.653Z,99844.03
2022-08-03T04:34:06.173Z,99847.16
2022-08-03T04:36:38.642Z,99848.66
2022-08-03T04:39:10.271Z,99846.53
2022-08-03T04:42:06.994Z,99851.41
2022-08-03T04:44:30.486Z,99842.47
2022-08-03T04:46:59.874Z,99850.75
2022-08-03T04:49:29.006Z,99845.25
2022-08-03T04:51:57.610Z,99850.91
2022-08-03T04:54:27.468Z,99855.66
2022-08-03T04:56:56.044Z,99858.84
2022-08-03T04:59:24.420Z,99854.03
2022-08-03T05:01:53.187Z,99848.28
2022-08-03T05:04:21.672Z,99861.69
2022-08-03T05:06:54.825Z,99855.31
2022-08-03T05:09:48.933Z,99856.50
2022-08-03T05:12:13.861Z,99854.56
2022-08-03T05:14:42.504Z,99856.00
2022-08-03T05:17:12.191Z,99858.16
2022-08-03T05:19:40.586Z,99857.84
2022-08-03T05:22:10.041Z,99860.19
2022-08-03T05:24:38.592Z,99863.44
2022-08-03T05:27:06.969Z,99862.16
2022-08-03T05:29:37.200Z,99858.28
2022-08-03T05:32:08.290Z,99859.63
2022-08-03T05:34:47.159Z,99861.88
2022-08-03T05:37:16.602Z,99862.66
2022-08-03T05:39:44.980Z,99865.75
2022-08-03T05:42:13.609Z,99859.47
2022-08-03T05:44:43.412Z,99859.16
2022-08-03T05:47:11.885Z,99860.50
2022-08-03T05:49:40.421Z,99864.31
2022-08-03T05:52:13.921Z,99862.00
2022-08-03T05:54:56.624Z,99859.16
2022-08-03T05:57:26.445Z,99858.94
2022-08-03T05:59:58.420Z,99857.44
2022-08-03T06:02:27.554Z,99869.09
2022-08-03T06:04:56.037Z,99867.50
2022-08-03T06:07:24.772Z,99863.81
2022-08-03T06:10:35.506Z,99863.44
2022-08-03T06:12:42.299Z,99856.72
2022-08-03T06:15:12.599Z,99859.72
2022-08-03T06:17:47.633Z,99860.13
2022-08-03T06:20:18.233Z,99861.34
2022-08-03T06:22:51.130Z,99854.09
2022-08-03T06:25:29.619Z,99849.34
2022-08-03T06:27:58.075Z,99853.50
2022-08-03T06:30:27.934Z,99854.41
2022-08-03T06:32:56.902Z,99850.91
2022-08-03T06:35:25.482Z,99863.75
2022-08-03T06:37:53.991Z,99858.88
2022-08-03T06:40:29.072Z,99859.19
2022-08-03T06:42:57.508Z,99863.13
2022-08-03T06:45:32.148Z,99865.19
2022-08-03T06:48:04.551Z,99868.53
2022-08-03T06:50:33.453Z,99865.94
2022-08-03T06:53:02.190Z,99871.75
2022-08-03T06:55:30.707Z,99864.22
2022-08-03T06:58:00.099Z,99867.78
2022-08-03T07:00:34.610Z,99874.94
2022-08-03T07:03:03.104Z,99871.72
2022-08-03T07:05:33.673Z,99870.22
2022-08-03T07:08:03.925Z,99871.41
2022-08-03T07:10:32.402Z,99863.66
2022-08-03T07:13:00.730Z,99867.22
2022-08-03T07:15:38.319Z,99867.38
2022-08-03T07:18:24.605Z,99865.00
2022-08-03T07:20:59.913Z,99867.88
2022-08-03T07:23:28.801Z,99872.22
2022-08-03T07:25:57.311Z,99867.09
2022-08-03T07:28:25.801Z,99873.69
2022-08-03T07:30:54.271Z,99865.78
2022-08-03T07:33:24.769Z,99866.66
2022-08-03T07:35:53.112Z,99862.06
2022-08-03T07:38:21.739Z,99861.88
2022-08-03T07:40:50.302Z,99864.97
2022-08-03T07:43:19.092Z,99862.63
2022-08-03T07:45:47.541Z,99863.00
2022-08-03T07:48:16.032Z,99865.66
2022-08-03T07:50:46.490Z,99860.97
2022-08-03T07:53:14.960Z,99866.03
2022-08-03T07:55:43.350Z,99855.56
2022-08-03T07:58:19.179Z,99848.91
2022-08-03T08:00:51.175Z,99860.66
2022-08-03T08:03:19.846Z,99851.22
2022-08-03T08:05:49.675Z,99857.19
2022-08-03T08:08:18.181Z,99853.25
2022-08-03T08:10:57.833Z,99855.94
2022-08-03T08:13:27.343Z,99858.47
2022-08-03T08:15:55.824Z,99852.63
2022-08-03T08:18:24.522Z,99856.53
2022-08-03T08:20:54.584Z,99852.38
2022-08-03T08:23:42.032Z,99852.78
2022-08-03T08:26:12.336Z,99853.91
2022-08-03T08:28:41.069Z,99854.38
2022-08-03T08:31:09.463Z,99849.66
2022-08-03T08:34:02.711Z,99857.53
2022-08-03T08:36:27.839Z,99856.47
2022-08-03T08:38:56.611Z,99853.31
2022-08-03T08:41:25.047Z,99855.00
2022-08-03T08:44:00.988Z,99858.69
2022-08-03T08:46:31.539Z,99851.66
2022-08-03T08:49:00.651Z,99852.59
2022-08-03T08:51:54.647Z,99857.97
2022-08-03T08:54:27.474Z,99849.53
2022-08-03T08:56:57.731Z,99850.94
2022-08-03T08:59:26.728Z,99844.28
2022-08-03T09:02:15.457Z,99843.97
2022-08-03T09:04:45.891Z,99838.59
2022-08-03T09:07:20.433Z,99848.69
2022-08-03T09:10:07.598Z,99843.38
2022-08-03T09:12:42.815Z,99837.44
2022-08-03T09:15:18.877Z,99831.28
2022-08-03T09:17:50.819Z,99830.13
2022-08-03T09:20:20.625Z,99833.97
2022-08-03T09:22:58.342Z,99831.56
2022-08-03T09:25:30.999Z,99828.47
2022-08-03T09:28:06.510Z,99835.91
2022-08-03T09:30:35.943Z,99820.88
2022-08-03T09:33:05.006Z,99817.13
2022-08-03T09:35:53.047Z,99821.69
2022-08-03T09:38:24.501Z,99825.31
2022-08-03T09:40:58.877Z,99814.44
2022-08-03T09:43:28.301Z,99811.97
2022-08-03T09:46:05.227Z,99815.81
2022-08-03T09:48:35.283Z,99819.16
2022-08-03T09:51:12.865Z,99815.81
2022-08-03T09:53:58.914Z,99814.16
2022-08-03T09:56:40.152Z,99803.84
2022-08-03T09:59:08.798Z,99794.28
2022-08-03T10:01:37.598Z,99785.53
2022-08-03T10:04:06.402Z,99787.66
2022-08-03T10:06:34.793Z,99792.56
2022-08-03T10:09:08.545Z,99785.38
2022-08-03T10:11:41.223Z,99785.31
2022-08-03T10:14:11.871Z,99790.59
2022-08-03T10:16:41.213Z,99779.56
2022-08-03T10:19:10.750Z,99773.91
2022-08-03T10:21:40.743Z,99778.50
2022-08-03T10:24:11.394Z,99779.34
2022-08-03T10:26:50.003Z,99775.31
2022-08-03T10:29:22.972Z,99768.03
2022-08-03T10:31:57.568Z,99771.00
2022-08-03T10:34:28.282Z,99769.41
2022-08-03T10:36:58.711Z,99769.22
2022-08-03T10:39:30.142Z,99771.22
2022-08-03T10:41:59.995Z,99773.31
2022-08-03T10:44:34.779Z,99770.97
2022-08-03T10:47:03.463Z,99770.91
2022-08-03T10:49:34.565Z,99771.66
2022-08-03T10:52:11.359Z,99765.88
2022-08-03T10:55:07.829Z,99770.69
2022-08-03T10:57:49.801Z,99768.94
2022-08-03T11:00:19.605Z,99772.25
2022-08-03T11:02:58.785Z,99769.84
2022-08-03T11:05:27.586Z,99768.44
2022-08-03T11:08:11.143Z,99767.66
2022-08-03T11:10:41.289Z,99764.78
2022-08-03T11:13:10.706Z,99760.31
2022-08-03T11:15:40.511Z,99756.78
2022-08-03T11:18:11.267Z,99752.66
2022-08-03T11:20:48.073Z,99750.69
2022-08-03T11:23:17.484Z,99754.09
2022-08-03T11:25:56.903Z,99756.47
2022-08-03T11:28:30.521Z,99747.94
2022-08-03T11:31:46.704Z,99741.03
2022-08-03T11:34:10.490Z,99748.25
2022-08-03T11:36:53.730Z,99744.25
2022-08-03T11:39:22.751Z,99749.13
2022-08-03T11:41:51.146Z,99743.25
2022-08-03T11:44:34.612Z,99743.56
2022-08-03T11:47:04.644Z,99744.06
2022-08-03T11:49:33.268Z,99732.69
2022-08-03T11:52:02.223Z,99725.06
2022-08-03T11:54:31.223Z,99722.44
2022-08-03T11:56:59.602Z,99723.97
2022-08-03T11:59:34.243Z,99727.56
2022-08-03T12:02:09.487Z,99716.03
2022-08-03T12:04:51.614Z,99716.44
2022-08-03T12:07:25.012Z,99712.28
2022-08-03T12:10:09.833Z,99713.09
2022-08-03T12:12:39.666Z,99714.53
2022-08-03T12:15:10.483Z,99714.94
2022-08-03T12:17:42.343Z,99713.28
2022-08-03T12:20:12.124Z,99713.13
2022-08-03T12:22:41.771Z,99714.81
2022-08-03T12:25:38.466Z,99703.97
2022-08-03T12:28:36.519Z,99708.63
2022-08-03T12:31:02.904Z,99711.97
2022-08-03T12:33:32.871Z,99707.00
2022-08-03T12:36:06.575Z,99702.50
2022-08-03T12:38:37.196Z,99693.47
2022-08-03T12:41:13.812Z,99701.00
2022-08-03T12:43:50.612Z,99704.47
2022-08-03T12:46:20.021Z,99695.00
2022-08-03T12:48:59.455Z,99697.81
2022-08-03T12:51:29.921Z,99693.91
2022-08-03T12:53:59.313Z,99693.91
2022-08-03T12:56:28.063Z,99694.22
2022-08-03T12:58:56.412Z,99699.78
2022-08-03T13:01:28.001Z,99689.88
2022-08-03T13:03:56.612Z,99688.06
2022-08-03T13:06:25.977Z,99688.50
2022-08-03T13:09:05.307Z,99686.13
2022-08-03T13:11:58.256Z,99680.97
2022-08-03T13:14:24.014Z,99685.69
2022-08-03T13:16:52.570Z,99676.91
2022-08-03T13:19:21.015Z,99673.84
2022-08-03T13:21:53.627Z,99671.38
2022-08-03T13:24:34.322Z,99686.53
2022-08-03T13:28:02.255Z,99675.81
2022-08-03T13:29:55.722Z,99669.97
2022-08-03T13:32:24.474Z,99663.59
2022-08-03T13:34:53.053Z,99668.03
2022-08-03T13:37:22.293Z,99668.47
2022-08-03T13:39:59.516Z,99663.28
2022-08-03T13:42:33.551Z,99662.06
2022-08-03T13:45:02.793Z,99662.88
2022-08-03T13:47:31.465Z,99654.56
2022-08-03T13:50:02.730Z,99656.34
2022-08-03T13:52:33.679Z,99649.66
2022-08-03T13:55:02.096Z,99649.59
2022-08-03T13:58:02.349Z,99639.03
2022-08-03T14:00:27.044Z,99646.53
2022-08-03T14:03:03.833Z,99633.91
2022-08-03T14:05:35.922Z,99637.50
2022-08-03T14:08:05.948Z,99635.66
2022-08-03T14:10:36.286Z,99624.97
2022-08-03T14:13:05.226Z,99628.88
2022-08-03T14:15:37.666Z,99627.63
2022-08-03T14:18:15.323Z,99622.59
2022-08-03T14:20:47.701Z,99625.69
2022-08-03T14:23:19.564Z,99620.41
2022-08-03T14:25:51.788Z,99625.09
2022-08-03T14:28:22.774Z,99622.03
2022-08-03T14:30:54.053Z,99617.84
2022-08-03T14:33:22.645Z,99631.47
2022-08-03T14:35:51.484Z,99626.97
2022-08-03T14:38:20.109Z,99631.63
2022-08-03T14:40:49.079Z,99634.41
2022-08-03T14:43:20.400Z,99620.50
2022-08-03T14:45:48.995Z,99619.69
2022-08-03T14:50:30.652Z,99619.97
2022-08-03T14:51:07.872Z,99615.94
2022-08-03T14:53:36.189Z,99613.13
2022-08-03T14:56:09.640Z,99615.78
2022-08-03T14:58:39.215Z,99614.97
2022-08-03T15:02:05.621Z,99608.56
2022-08-03T15:03:58.813Z,99610.44
2022-08-03T15:06:27.304Z,99605.97
2022-08-03T15:09:21.554Z,99606.13
2022-08-03T15:11:44.517Z,99604.56
2022-08-03T15:14:13.515Z,99603.72
2022-08-03T15:16:43.733Z,99603.97
2022-08-03T15:20:00.341Z,99603.97
2022-08-03T15:22:02.193Z,99599.78
2022-08-03T15:24:30.735Z,99599.44
2022-08-03T15:26:59.295Z,99595.97
2022-08-03T15:30:06.791Z,99601.22
2022-08-03T15:32:17.113Z,99590.31
2022-08-03T15:34:50.319Z,99593.50
2022-08-03T15:37:21.033Z,99599.41
2022-08-03T15:39:59.558Z,99598.19
2022-08-03T15:42:30.358Z,99584.44
2022-08-03T15:44:58.796Z,99583.22
2022-08-03T15:47:27.456Z,99582.75
2022-08-03T15:49:58.093Z,99590.81
2022-08-03T15:52:26.654Z,99592.44
2022-08-03T15:54:55.088Z,99589.75
2022-08-03T15:57:24.267Z,99596.13
2022-08-03T15:59:52.653Z,99593.03
2022-08-03T16:02:21.753Z,99593.72
2022-08-03T16:04:50.202Z,99589.59
2022-08-03T16:07:40.735Z,99594.88
2022-08-03T16:10:30.836Z,99590.44
2022-08-03T16:13:00.379Z,99591.00
2022-08-03T16:15:29.372Z,99589.84
2022-08-03T16:17:57.899Z,99577.72
2022-08-03T16:20:31.108Z,99584.78
2022-08-03T16:23:10.964Z,99584.22
2022-08-03T16:25:40.474Z,99584.78
2022-08-03T16:28:13.795Z,99580.16
2022-08-03T16:30:43.763Z,99577.75
2022-08-03T16:33:17.245Z,99576.59
2022-08-03T16:35:46.685Z,99582.81
2022-08-03T16:38:19.068Z,99583.06
2022-08-03T16:40:51.890Z,99575.94
2022-08-03T16:43:22.242Z,99581.72
2022-08-03T16:45:50.895Z,99580.03
2022-08-03T16:48:19.815Z,99575.00
2022-08-03T16:50:48.744Z,99577.66
2022-08-03T16:53:18.689Z,99575.53
2022-08-03T16:56:05.580Z,99582.97
2022-08-03T16:58:42.117Z,99582.25
2022-08-03T17:01:22.038Z,99590.63
2022-08-03T17:04:02.504Z,99587.53
2022-08-03T17:06:34.208Z,99590.50
2022-08-03T17:09:09.219Z,99590.78
2022-08-03T17:11:44.071Z,99592.72
2022-08-03T17:14:16.270Z,99591.41
2022-08-03T17:16:52.648Z,99597.84
2022-08-03T17:19:23.316Z,99600.03
2022-08-03T17:22:01.392Z,99596.94
2022-08-03T17:24:33.283Z,99605.44
2022-08-03T17:27:08.650Z,99598.97
2022-08-03T17:29:45.152Z,99591.31
2022-08-03T17:32:18.343Z,99606.00
2022-08-03T17:34:50.902Z,99601.94
2022-08-03T17:37:50.660Z,99597.88
2022-08-03T17:40:17.425Z,99616.28
2022-08-03T17:42:50.503Z,99611.09
2022-08-03T17:45:52.274Z,99613.13
2022-08-03T17:48:25.217Z,99608.34
2022-08-03T17:50:57.637Z,99601.50
2022-08-03T17:53:31.163Z,99611.22
2022-08-03T17:56:45.170Z,99608.88
2022-08-03T17:58:59.878Z,99611.38
2022-08-03T18:02:00.602Z,99612.66
2022-08-03T18:04:41.292Z,99626.13
2022-08-03T18:07:13.414Z,99618.47
2022-08-03T18:10:03.903Z,99617.97
2022-08-03T18:12:45.479Z,99617.34
2022-08-03T18:15:21.396Z,99622.78
2022-08-03T18:18:01.857Z,99623.59
2022-08-03T18:20:40.411Z,99621.91
2022-08-03T18:23:24.692Z,99625.88
2022-08-03T18:26:00.848Z,99627.41
2022-08-03T18:28:30.989Z,99625.94
2022-08-03T18:31:01.887Z,99626.25
2022-08-03T18:34:17.829Z,99630.53
2022-08-03T18:36:30.619Z,99625.75
2022-08-03T18:39:00.217Z,99628.44
2022-08-03T18:41:33.029Z,99634.47
2022-08-03T18:44:52.511Z,99636.56
2022-08-03T18:47:28.518Z,99627.22
2022-08-03T18:50:21.031Z,99631.56
2022-08-03T18:52:53.552Z,99636.81
2022-08-03T18:55:33.608Z,99637.91
2022-08-03T18:58:09.889Z,99638.31
2022-08-03T19:00:54.591Z,99635.88
2022-08-03T19:03:43.242Z,99636.84
2022-08-03T19:06:19.756Z,99636.47
2022-08-03T19:08:51.859Z,99638.59
2022-08-03T19:11:28.074Z,99642.78
2022-08-03T19:13:59.445Z,99652.72
2022-08-03T19:16:38.776Z,99651.59
2022-08-03T19:19:10.569Z,99656.81
2022-08-03T19:21:43.115Z,99666.13
2022-08-03T19:24:14.001Z,99661.09
2022-08-03T19:26:48.486Z,99668.16
2022-08-03T19:29:22.844Z,99662.03
2022-08-03T19:31:59.707Z,99670.84
2022-08-03T19:34:33.092Z,99672.78
2022-08-03T19:37:02.490Z,99680.31
2022-08-03T19:39:31.876Z,99668.75
2022-08-03T19:42:12.225Z,99677.13
2022-08-03T19:44:52.369Z,99669.66
2022-08-03T19:47:27.439Z,99672.31
2022-08-03T19:50:10.305Z,99681.94
2022-08-03T19:52:44.109Z,99674.97
2022-08-03T19:55:12.886Z,99675.81
2022-08-03T19:57:42.570Z,99673.09
2022-08-03T20:00:13.972Z,99678.50
2022-08-03T20:02:45.259Z,99679.66
2022-08-03T20:05:15.315Z,99688.72
2022-08-03T20:07:48.312Z,99688.88
2022-08-03T20:10:17.879Z,99681.13
2022-08-03T20:12:47.011Z,99690.31
2022-08-03T20:15:22.189Z,99687.13
2022-08-03T20:18:03.129Z,99686.84
2022-08-03T20:20:35.349Z,99688.22
2022-08-03T20:23:08.360Z,99677.44
2022-08-03T20:25:48.767Z,99685.78
2022-08-03T20:28:29.599Z,99684.72
2022-08-03T20:30:58.179Z,99683.75
2022-08-03T20:33:48.742Z,99687.88
2022-08-03T20:36:18.570Z,99683.91
2022-08-03T20:38:48.228Z,99684.81
2022-08-03T20:41:16.901Z,99685.97
2022-08-03T20:43:45.222Z,99684.97
2022-08-03T20:46:31.015Z,99683.56
2022-08-03T20:49:06.042Z,99678.34
2022-08-03T20:51:49.991Z,99670.94
2022-08-03T20:54:30.714Z,99677.84
2022-08-03T20:57:03.601Z,99670.19
2022-08-03T20:59:46.954Z,99673.06
2022-08-03T21:02:28.798Z,99675.59
2022-08-03T21:05:08.229Z,99672.78
2022-08-03T21:08:04.222Z,99675.59
2022-08-03T21:10:28.701Z,99678.66
2022-08-03T21:16:12.012Z,99683.44
2022-08-03T21:18:40.001Z,99691.19
2022-08-03T21:21:11.752Z,99689.78
2022-08-03T21:23:48.865Z,99694.59
2022-08-03T21:26:17.990Z,99692.91
2022-08-03T21:28:47.030Z,99697.06
2022-08-03T21:31:24.671Z,99686.25
2022-08-03T21:33:56.497Z,99685.84
2022-08-03T21:36:27.297Z,99695.31
2022-08-03T21:38:57.264Z,99695.66
2022-08-03T21:41:26.399Z,99696.69
2022-08-03T21:43:54.803Z,99699.53
2022-08-03T21:46:23.416Z,99703.91
2022-08-03T21:48:55.441Z,99706.25
2022-08-03T21:51:25.471Z,99707.50
2022-08-03T21:54:02.878Z,99706.91
2022-08-03T21:56:36.275Z,99707.50
2022-08-03T21:59:05.965Z,99711.50
2022-08-03T22:01:35.368Z,99710.22
2022-08-03T22:04:06.897Z,99710.06
2022-08-03T22:06:36.121Z,99703.91
2022-08-03T22:09:07.081Z,99712.16
2022-08-03T22:11:35.941Z,99706.19
2022-08-03T22:14:04.400Z,99709.72
2022-08-03T22:16:33.785Z,99712.22
2022-08-03T22:19:02.284Z,99717.19
2022-08-03T22:21:36.361Z,99720.69
2022-08-03T22:24:07.656Z,99714.50
2022-08-03T22:26:37.030Z,99724.47
2022-08-03T22:29:08.274Z,99716.00
2022-08-03T22:31:58.081Z,99726.72
2022-08-03T22:34:27.358Z,99720.88
2022-08-03T22:37:00.339Z,99727.16
2022-08-03T22:39:31.371Z,99730.72
2022-08-03T22:42:00.128Z,99736.19
2022-08-03T22:44:28.884Z,99729.19
2022-08-03T22:46:57.750Z,99733.22
2022-08-03T22:49:29.205Z,99719.97
2022-08-03T22:51:57.754Z,99722.50
2022-08-03T22:54:26.199Z,99725.69
2022-08-03T22:56:56.344Z,99724.53
2022-08-03T22:59:38.936Z,99724.66
2022-08-03T23:02:15.143Z,99724.91
2022-08-03T23:04:52.547Z,99729.16
2022-08-03T23:07:22.283Z,99729.78
2022-08-03T23:09:51.076Z,99728.16
2022-08-03T23:12:21.610Z,99730.16
2022-08-03T23:14:54.177Z,99727.28
2022-08-03T23:17:23.985Z,99722.41
2022-08-03T23:19:53.873Z,99725.72
2022-08-03T23:22:30.370Z,99730.63
2022-08-03T23:25:01.723Z,99727.44
2022-08-03T23:27:31.754Z,99724.38
2022-08-03T23:30:02.215Z,99723.84
2022-08-03T23:32:31.594Z,99723.00
2022-08-03T23:35:10.334Z,99728.00
2022-08-03T23:38:04.203Z,99733.91
2022-08-03T23:40:31.368Z,99731.13
2022-08-03T23:43:02.636Z,99725.63
2022-08-03T23:45:33.206Z,99728.59
2022-08-03T23:48:01.637Z,99729.94
2022-08-03T23:50:36.656Z,99728.06
2022-08-03T23:53:10.526Z,99732.91
2022-08-03T23:55:45.362Z,99731.09
2022-08-03T23:58:21.548Z,99731.13
